Time;durP1;ratioP1;P1;durP2;ratioP2;P2;SDS_P1;SDS_P2;PMS_P1;PMS_P2;Temp;Humidity;BMP_temperature;BMP_pressure;BME280_temperature;BME280_humidity;BME280_pressure;Samples;Min_cycle;Max_cycle;Signal;HPM_P1;HPM_P2
2023/10/21 00:01:35;;;;;;;1.60;0.95;;;15.90;99.90;;;;;;4972216;28;20180;-75
2023/10/21 00:04:01;;;;;;;2.63;1.45;;;15.90;99.90;;;;;;4975147;28;20239;-76
2023/10/21 00:06:28;;;;;;;2.42;1.27;;;15.90;99.90;;;;;;4969390;28;20206;-76
2023/10/21 00:08:54;;;;;;;1.38;1.10;;;15.90;99.90;;;;;;4975311;28;20180;-74
2023/10/21 00:11:22;;;;;;;1.75;1.00;;;15.90;99.90;;;;;;4976092;28;20311;-74
2023/10/21 00:13:49;;;;;;;1.67;0.98;;;15.90;99.90;;;;;;4975264;28;20195;-75
2023/10/21 00:16:18;;;;;;;1.00;0.77;;;15.90;99.90;;;;;;4961112;28;20184;-73
2023/10/21 00:18:45;;;;;;;1.40;1.08;;;15.80;99.90;;;;;;4961832;28;20200;-76
2023/10/21 00:21:12;;;;;;;1.77;1.13;;;15.80;99.90;;;;;;4974977;28;20180;-73
2023/10/21 00:23:38;;;;;;;1.45;0.98;;;15.80;99.90;;;;;;4970900;28;20220;-75
2023/10/21 00:26:04;;;;;;;1.45;0.90;;;15.80;99.90;;;;;;4959180;28;20200;-75
2023/10/21 00:28:32;;;;;;;1.92;0.90;;;15.80;99.90;;;;;;4955961;29;20172;-74
2023/10/21 00:31:02;;;;;;;1.35;0.80;;;15.70;99.90;;;;;;4956018;28;20197;-71
2023/10/21 00:33:30;;;;;;;1.10;0.80;;;15.60;99.90;;;;;;4971362;28;20183;-75
2023/10/21 00:35:55;;;;;;;1.30;0.70;;;15.70;99.90;;;;;;4978333;28;20191;-75
2023/10/21 00:38:26;;;;;;;1.02;0.88;;;15.60;99.90;;;;;;4978505;28;20196;-75
2023/10/21 00:40:56;;;;;;;2.25;0.82;;;15.60;99.90;;;;;;4977726;28;20180;-72
2023/10/21 00:43:40;;;;;;;1.30;0.90;;;15.60;99.90;;;;;;4967462;28;20204;-75
2023/10/21 00:46:09;;;;;;;1.25;0.77;;;15.50;99.90;;;;;;4978441;28;20253;-75
2023/10/21 00:48:35;;;;;;;1.65;0.90;;;15.50;99.90;;;;;;4978535;28;20227;-75
2023/10/21 00:51:03;;;;;;;1.38;1.00;;;15.50;99.90;;;;;;4959408;28;20271;-73
2023/10/21 00:53:31;;;;;;;1.02;0.90;;;15.50;99.90;;;;;;4976770;28;20292;-75
2023/10/21 00:56:00;;;;;;;1.00;0.90;;;15.50;99.90;;;;;;4977730;28;20268;-75
2023/10/21 00:58:27;;;;;;;0.95;0.77;;;15.40;99.90;;;;;;4978253;28;20211;-76
2023/10/21 01:00:54;;;;;;;0.77;0.70;;;15.40;99.90;;;;;;4977666;28;20183;-75
2023/10/21 01:03:22;;;;;;;1.00;0.70;;;15.40;99.90;;;;;;4978149;28;20199;-74
2023/10/21 01:05:52;;;;;;;1.10;0.85;;;15.40;99.90;;;;;;4974883;28;20287;-74
2023/10/21 01:08:18;;;;;;;1.27;1.00;;;15.40;99.90;;;;;;4959328;28;20165;-75
2023/10/21 01:10:45;;;;;;;1.08;0.85;;;15.40;99.90;;;;;;4965315;28;20223;-73
2023/10/21 01:13:13;;;;;;;1.10;0.73;;;15.40;99.90;;;;;;4958631;29;20209;-74
2023/10/21 01:15:39;;;;;;;1.00;0.88;;;15.40;99.90;;;;;;4963512;28;20207;-74
2023/10/21 01:18:08;;;;;;;1.77;1.10;;;15.40;99.90;;;;;;4977566;28;20215;-73
2023/10/21 01:20:35;;;;;;;1.10;0.82;;;15.30;99.90;;;;;;4978098;28;20253;-74
2023/10/21 01:23:03;;;;;;;1.00;0.82;;;15.30;99.90;;;;;;4974660;28;20208;-73
2023/10/21 01:25:28;;;;;;;1.00;0.82;;;15.30;99.90;;;;;;4959624;28;20220;-72
2023/10/21 01:27:57;;;;;;;1.33;0.77;;;15.30;99.90;;;;;;4977498;28;20239;-69
2023/10/21 01:30:26;;;;;;;1.48;1.00;;;15.20;99.90;;;;;;4964847;28;20173;-68
2023/10/21 01:32:54;;;;;;;1.38;1.08;;;15.20;99.90;;;;;;4971176;28;20192;-69
2023/10/21 01:35:21;;;;;;;1.15;0.90;;;15.20;99.90;;;;;;4977765;28;20199;-69
2023/10/21 01:37:47;;;;;;;1.30;1.00;;;15.20;99.90;;;;;;4977609;28;20207;-66
2023/10/21 01:40:13;;;;;;;1.20;1.00;;;15.10;99.90;;;;;;4976376;28;20176;-68
2023/10/21 01:42:42;;;;;;;1.27;1.05;;;15.10;99.90;;;;;;4975910;28;20207;-69
2023/10/21 01:45:09;;;;;;;1.75;1.15;;;15.10;99.90;;;;;;4979193;28;20203;-69
2023/10/21 01:47:35;;;;;;;1.05;0.95;;;15.00;99.90;;;;;;4977245;28;20227;-67
2023/10/21 01:50:11;;;;;;;1.50;1.00;;;15.00;99.90;;;;;;4975281;28;20183;-68
2023/10/21 01:52:37;;;;;;;1.65;1.20;;;15.00;99.90;;;;;;4968063;28;20186;-68
2023/10/21 01:55:10;;;;;;;1.10;0.90;;;15.00;99.90;;;;;;4981828;28;20203;-68
2023/10/21 01:57:36;;;;;;;0.80;0.70;;;15.00;99.90;;;;;;4977352;28;20196;-69
2023/10/21 02:00:08;;;;;;;1.85;1.10;;;15.00;99.90;;;;;;4976322;28;20180;-69
2023/10/21 02:02:37;;;;;;;2.25;1.20;;;15.00;99.90;;;;;;4977051;28;20172;-69
2023/10/21 02:05:04;;;;;;;1.48;1.10;;;15.00;99.90;;;;;;4974214;28;20204;-69
2023/10/21 02:07:39;;;;;;;1.23;0.88;;;15.00;99.90;;;;;;4973977;28;20200;-69
2023/10/21 02:10:05;;;;;;;1.15;0.95;;;15.00;99.90;;;;;;4973905;28;20172;-68
2023/10/21 02:12:33;;;;;;;1.98;1.15;;;15.00;99.90;;;;;;4957692;29;20176;-68
2023/10/21 02:15:02;;;;;;;1.98;1.05;;;15.00;99.90;;;;;;4957919;28;20204;-68
2023/10/21 02:17:29;;;;;;;1.63;1.52;;;15.00;99.90;;;;;;4977117;28;20272;-67
2023/10/21 02:19:56;;;;;;;3.03;1.40;;;15.00;99.90;;;;;;4981129;28;20249;-70
2023/10/21 02:22:23;;;;;;;1.40;1.30;;;15.00;99.90;;;;;;4983351;28;20203;-66
2023/10/21 02:24:50;;;;;;;1.77;1.40;;;15.00;99.90;;;;;;4971610;28;20204;-69
2023/10/21 02:27:17;;;;;;;1.67;1.35;;;15.00;99.90;;;;;;4976679;28;20172;-69
2023/10/21 02:29:43;;;;;;;1.35;1.17;;;15.00;99.90;;;;;;4977475;28;20183;-69
2023/10/21 02:32:08;;;;;;;2.15;1.67;;;15.00;99.90;;;;;;4976310;28;20176;-69
2023/10/21 02:34:34;;;;;;;3.70;1.80;;;15.00;99.90;;;;;;4976371;28;20210;-69
2023/10/21 02:36:59;;;;;;;1.60;1.35;;;15.00;99.90;;;;;;4965559;28;20272;-69
2023/10/21 02:39:25;;;;;;;1.35;1.23;;;15.00;99.90;;;;;;4976549;28;20183;-69
2023/10/21 02:41:53;;;;;;;1.83;1.40;;;14.90;99.90;;;;;;4976422;28;20184;-70
2023/10/21 02:44:22;;;;;;;1.25;1.08;;;14.90;99.90;;;;;;4976299;28;20212;-69
2023/10/21 02:46:50;;;;;;;1.27;1.17;;;14.90;99.90;;;;;;4957337;28;20173;-69
2023/10/21 02:49:17;;;;;;;1.17;0.93;;;14.90;99.90;;;;;;4958294;28;20203;-70
2023/10/21 02:51:43;;;;;;;1.60;1.20;;;14.90;99.90;;;;;;4979404;28;20176;-69
2023/10/21 02:54:11;;;;;;;1.10;0.95;;;14.90;99.90;;;;;;4987093;28;20207;-69
2023/10/21 02:56:36;;;;;;;0.98;0.88;;;14.80;99.90;;;;;;4975735;28;20204;-69
2023/10/21 02:59:02;;;;;;;1.73;1.10;;;14.80;99.90;;;;;;4985124;28;20182;-69
2023/10/21 03:01:28;;;;;;;1.75;1.00;;;14.80;99.90;;;;;;4976636;28;20199;-69
2023/10/21 03:03:56;;;;;;;1.10;1.00;;;14.80;99.90;;;;;;4975489;28;20195;-69
2023/10/21 03:06:26;;;;;;;1.40;0.88;;;14.80;99.90;;;;;;4965174;28;20212;-69
2023/10/21 03:08:52;;;;;;;1.40;0.98;;;14.80;99.90;;;;;;4971140;28;20192;-70
2023/10/21 03:11:20;;;;;;;1.40;0.90;;;14.80;99.90;;;;;;4965003;28;20217;-69
2023/10/21 03:13:45;;;;;;;0.80;0.80;;;14.80;99.90;;;;;;4975802;28;20206;-68
2023/10/21 03:16:14;;;;;;;1.25;0.88;;;14.80;99.90;;;;;;4975206;28;20215;-69
2023/10/21 03:18:48;;;;;;;1.25;1.00;;;14.80;99.90;;;;;;4968519;28;20204;-69
2023/10/21 03:21:15;;;;;;;1.58;0.75;;;14.80;99.90;;;;;;4972530;28;20191;-69
2023/10/21 03:23:41;;;;;;;1.55;1.05;;;14.80;99.90;;;;;;4956611;29;20425;-69
2023/10/21 03:26:07;;;;;;;1.20;0.95;;;14.70;99.90;;;;;;4956651;28;20217;-69
2023/10/21 03:28:38;;;;;;;1.00;0.90;;;14.80;99.90;;;;;;4960788;28;20179;-69
2023/10/21 03:31:04;;;;;;;1.27;0.90;;;14.80;99.90;;;;;;4975188;28;20200;-67
2023/10/21 03:33:31;;;;;;;1.45;0.90;;;14.80;99.90;;;;;;4975881;28;20323;-69
2023/10/21 03:36:04;;;;;;;1.10;1.00;;;14.80;99.90;;;;;;4968222;28;20221;-69
2023/10/21 03:38:30;;;;;;;1.90;1.35;;;14.80;99.90;;;;;;4975468;28;20223;-68
2023/10/21 03:41:00;;;;;;;1.65;1.25;;;14.80;99.90;;;;;;4975801;28;20180;-68
2023/10/21 03:43:26;;;;;;;1.55;1.30;;;14.80;99.90;;;;;;4975587;28;20195;-70
2023/10/21 03:45:55;;;;;;;2.53;1.77;;;14.80;99.90;;;;;;4967378;28;20215;-69
2023/10/21 03:48:22;;;;;;;2.65;1.60;;;14.90;99.90;;;;;;4975582;28;20168;-69
2023/10/21 03:50:51;;;;;;;3.60;1.48;;;14.90;99.90;;;;;;4975651;28;20172;-70
2023/10/21 03:53:17;;;;;;;1.40;1.30;;;14.90;99.90;;;;;;4974270;28;20184;-68
2023/10/21 03:55:45;;;;;;;2.78;1.40;;;14.90;99.90;;;;;;4971861;28;20202;-69
2023/10/21 03:58:11;;;;;;;2.03;1.40;;;14.90;99.90;;;;;;4963975;28;20235;-68
2023/10/21 04:00:40;;;;;;;1.27;1.02;;;14.90;99.90;;;;;;4973044;28;20188;-69
2023/10/21 04:03:07;;;;;;;1.23;0.98;;;14.90;99.90;;;;;;4975036;28;20290;-70
2023/10/21 04:05:33;;;;;;;2.17;1.05;;;15.00;99.90;;;;;;4975050;28;20220;-70
2023/10/21 04:08:04;;;;;;;1.00;0.90;;;15.00;99.90;;;;;;4972595;28;20184;-66
2023/10/21 04:10:30;;;;;;;1.98;1.70;;;15.10;99.90;;;;;;4977902;28;20271;-67
2023/10/21 04:12:58;;;;;;;6.47;5.05;;;15.10;99.90;;;;;;4978761;28;20196;-67
2023/10/21 04:15:25;;;;;;;3.17;2.65;;;15.10;99.90;;;;;;4978410;28;20172;-68
2023/10/21 04:17:51;;;;;;;1.88;1.73;;;15.10;99.90;;;;;;4978793;28;20176;-68
2023/10/21 04:20:19;;;;;;;3.05;1.40;;;15.20;99.90;;;;;;4978738;28;20171;-67
2023/10/21 04:22:44;;;;;;;1.73;1.05;;;15.20;99.90;;;;;;4967569;28;20187;-68
2023/10/21 04:25:13;;;;;;;1.13;1.00;;;15.20;99.90;;;;;;4978657;28;20206;-67
2023/10/21 04:27:39;;;;;;;1.50;1.10;;;15.20;99.90;;;;;;4970962;28;20191;-67
2023/10/21 04:30:10;;;;;;;1.50;0.80;;;15.10;99.90;;;;;;4975092;28;20176;-66
2023/10/21 04:32:36;;;;;;;1.27;0.77;;;15.20;99.90;;;;;;4978535;28;20207;-68
2023/10/21 04:35:04;;;;;;;1.77;0.77;;;15.20;99.90;;;;;;4978196;28;20168;-68
2023/10/21 04:37:33;;;;;;;0.90;0.73;;;15.20;99.90;;;;;;4967571;28;20268;-67
2023/10/21 04:40:00;;;;;;;1.95;1.75;;;15.30;99.90;;;;;;4980562;28;20311;-66
2023/10/21 04:42:28;;;;;;;2.08;1.88;;;15.20;99.90;;;;;;4994001;28;20184;-67
2023/10/21 04:44:54;;;;;;;3.05;1.67;;;15.20;99.90;;;;;;4978041;28;20212;-69
2023/10/21 04:47:19;;;;;;;1.67;1.38;;;15.20;99.90;;;;;;4978008;28;20200;-69
2023/10/21 04:49:47;;;;;;;1.00;0.90;;;15.20;99.90;;;;;;4961096;28;20243;-68
2023/10/21 04:52:15;;;;;;;1.23;0.80;;;15.20;99.90;;;;;;4970096;28;20173;-68
2023/10/21 04:54:42;;;;;;;1.00;0.80;;;15.30;99.90;;;;;;4970509;28;20188;-68
2023/10/21 04:57:08;;;;;;;1.45;0.50;;;15.20;99.90;;;;;;4989353;28;20187;-68
2023/10/21 04:59:35;;;;;;;0.47;0.47;;;15.20;99.90;;;;;;4978444;28;20196;-69
2023/10/21 05:02:00;;;;;;;0.45;0.40;;;15.20;99.90;;;;;;4994094;28;20204;-69
2023/10/21 05:04:26;;;;;;;0.80;0.60;;;15.20;99.90;;;;;;4968554;28;20242;-68
2023/10/21 05:06:54;;;;;;;1.40;0.40;;;15.20;99.90;;;;;;4958819;28;20208;-70
2023/10/21 05:09:22;;;;;;;0.52;0.40;;;15.20;99.90;;;;;;4959023;29;20161;-70
2023/10/21 05:11:50;;;;;;;0.77;0.32;;;15.20;99.90;;;;;;4964315;28;20180;-70
2023/10/21 05:14:20;;;;;;;1.27;0.50;;;15.10;99.90;;;;;;4975203;28;20212;-69
2023/10/21 05:16:48;;;;;;;1.05;0.60;;;15.10;99.90;;;;;;4958782;29;20180;-69
2023/10/21 05:19:14;;;;;;;0.55;0.50;;;15.10;99.90;;;;;;4973180;28;20176;-69
2023/10/21 05:21:40;;;;;;;0.50;0.50;;;15.10;99.90;;;;;;4969663;28;20344;-69
2023/10/21 05:24:05;;;;;;;0.55;0.40;;;15.10;99.90;;;;;;4974700;28;20476;-69
2023/10/21 05:26:36;;;;;;;0.98;0.80;;;15.10;99.90;;;;;;4981011;28;20172;-70
2023/10/21 05:29:07;;;;;;;1.33;1.00;;;15.00;99.90;;;;;;4978096;28;20223;-69
2023/10/21 05:31:33;;;;;;;1.25;0.80;;;15.00;99.90;;;;;;4978183;28;20176;-69
2023/10/21 05:33:59;;;;;;;1.08;0.70;;;15.10;99.90;;;;;;4978252;28;20203;-67
2023/10/21 05:36:25;;;;;;;0.80;0.70;;;15.00;99.90;;;;;;4974898;28;20268;-69
2023/10/21 05:38:51;;;;;;;1.85;0.70;;;15.10;99.90;;;;;;4977940;28;20246;-70
2023/10/21 05:41:17;;;;;;;1.83;0.60;;;15.10;99.90;;;;;;4974524;28;20204;-69
2023/10/21 05:43:42;;;;;;;0.70;0.60;;;15.10;99.90;;;;;;4977504;28;20488;-70
2023/10/21 05:46:10;;;;;;;1.27;0.60;;;15.10;99.90;;;;;;4977594;28;20204;-69
2023/10/21 05:48:36;;;;;;;1.85;0.60;;;15.10;99.90;;;;;;4974693;28;20267;-70
2023/10/21 05:51:02;;;;;;;1.05;0.52;;;15.10;99.90;;;;;;4975381;28;20215;-69
2023/10/21 05:53:30;;;;;;;0.47;0.40;;;15.10;99.90;;;;;;4958826;29;20177;-70
2023/10/21 05:55:56;;;;;;;1.15;0.43;;;15.10;99.90;;;;;;4963555;28;20180;-69
2023/10/21 05:58:24;;;;;;;0.40;0.40;;;15.10;99.90;;;;;;4977475;28;20263;-69
2023/10/21 06:00:53;;;;;;;0.73;0.60;;;15.10;99.90;;;;;;4978035;28;20195;-70
2023/10/21 06:03:20;;;;;;;0.38;0.38;;;15.10;99.90;;;;;;4977980;28;20180;-70
2023/10/21 06:05:48;;;;;;;1.52;0.73;;;15.10;99.90;;;;;;4994049;28;20227;-70
2023/10/21 06:08:16;;;;;;;0.68;0.50;;;15.20;99.90;;;;;;4975962;28;20176;-70
2023/10/21 06:10:44;;;;;;;1.40;0.65;;;15.20;99.90;;;;;;4974091;28;20205;-69
2023/10/21 06:13:12;;;;;;;0.77;0.60;;;15.20;99.90;;;;;;4977518;28;20179;-70
2023/10/21 06:15:38;;;;;;;1.40;0.70;;;15.20;99.90;;;;;;4990419;28;20208;-70
2023/10/21 06:18:04;;;;;;;1.00;0.88;;;15.20;99.90;;;;;;4968418;28;20203;-70
2023/10/21 06:20:32;;;;;;;1.00;0.80;;;15.20;99.90;;;;;;4977030;28;20179;-71
2023/10/21 06:22:57;;;;;;;0.90;0.80;;;15.20;99.90;;;;;;4987020;28;20196;-70
2023/10/21 06:25:24;;;;;;;0.95;0.75;;;15.20;99.90;;;;;;4974396;28;20311;-69
2023/10/21 06:27:49;;;;;;;1.15;0.60;;;15.20;99.90;;;;;;4971037;28;20206;-68
2023/10/21 06:30:15;;;;;;;1.48;0.60;;;15.20;99.90;;;;;;4966158;28;20267;-69
2023/10/21 06:32:43;;;;;;;0.70;0.68;;;15.20;99.90;;;;;;4977339;28;20168;-69
2023/10/21 06:35:08;;;;;;;1.05;0.50;;;15.20;99.90;;;;;;4976544;28;20203;-69
2023/10/21 06:37:38;;;;;;;1.88;0.47;;;15.20;99.90;;;;;;4960063;28;20203;-68
2023/10/21 06:40:04;;;;;;;0.77;0.50;;;15.20;99.90;;;;;;4962123;28;20208;-69
2023/10/21 06:42:35;;;;;;;0.70;0.50;;;15.20;99.90;;;;;;4977257;28;20226;-68
2023/10/21 06:45:00;;;;;;;0.70;0.45;;;15.30;99.90;;;;;;4976752;28;20192;-69
2023/10/21 06:47:28;;;;;;;1.25;0.50;;;15.30;99.90;;;;;;4975817;28;20195;-69
2023/10/21 06:49:54;;;;;;;1.08;0.52;;;15.40;99.90;;;;;;4976476;28;20176;-68
2023/10/21 06:52:25;;;;;;;1.08;0.40;;;15.40;99.90;;;;;;4976416;28;20291;-69
2023/10/21 06:54:53;;;;;;;0.98;0.47;;;15.40;99.90;;;;;;4976715;28;20180;-69
2023/10/21 06:57:24;;;;;;;0.90;0.30;;;15.50;99.90;;;;;;4974178;28;20181;-68
2023/10/21 06:59:52;;;;;;;0.43;0.30;;;15.50;99.90;;;;;;4977030;28;20222;-68
2023/10/21 07:02:17;;;;;;;1.48;1.00;;;15.50;99.90;;;;;;4976743;28;20172;-67
2023/10/21 07:04:43;;;;;;;1.45;0.88;;;15.50;99.90;;;;;;4976768;28;20208;-70
2023/10/21 07:07:10;;;;;;;1.33;0.60;;;15.50;99.90;;;;;;4976604;28;20178;-69
2023/10/21 07:09:40;;;;;;;0.40;0.40;;;15.60;99.90;;;;;;4976203;28;20176;-69
2023/10/21 07:12:06;;;;;;;0.43;0.32;;;15.60;99.90;;;;;;4973883;28;20182;-69
2023/10/21 07:14:34;;;;;;;0.30;0.30;;;15.60;99.90;;;;;;4975072;28;20176;-68
2023/10/21 07:17:02;;;;;;;1.13;0.50;;;15.60;99.90;;;;;;4963409;28;20188;-68
2023/10/21 07:19:29;;;;;;;1.38;0.70;;;15.60;99.90;;;;;;4976563;28;20191;-69
2023/10/21 07:21:55;;;;;;;0.85;0.60;;;15.60;99.90;;;;;;4965499;28;20201;-69
2023/10/21 07:24:21;;;;;;;0.82;0.52;;;15.60;99.90;;;;;;4973080;28;20251;-69
2023/10/21 07:26:46;;;;;;;1.17;0.45;;;15.60;99.90;;;;;;4973250;28;20187;-69
2023/10/21 07:29:12;;;;;;;2.90;0.60;;;15.60;99.90;;;;;;4973257;28;20231;-69
2023/10/21 07:31:42;;;;;;;0.28;0.28;;;15.60;99.90;;;;;;4972587;28;20180;-69
2023/10/21 07:34:08;;;;;;;1.20;0.43;;;15.50;99.90;;;;;;4972962;28;20200;-70
2023/10/21 07:36:36;;;;;;;0.57;0.57;;;15.60;99.90;;;;;;4973744;28;20191;-70
2023/10/21 07:39:04;;;;;;;0.47;0.30;;;15.60;99.90;;;;;;4957454;28;20192;-71
2023/10/21 07:41:32;;;;;;;1.55;0.40;;;15.50;99.90;;;;;;4975485;28;20196;-71
2023/10/21 07:44:00;;;;;;;0.40;0.35;;;15.50;99.90;;;;;;4979296;28;20172;-71
2023/10/21 07:46:28;;;;;;;0.73;0.30;;;15.50;99.90;;;;;;4981687;28;20219;-71
2023/10/21 07:48:54;;;;;;;0.38;0.38;;;15.50;99.90;;;;;;4982770;28;20271;-72
2023/10/21 07:51:20;;;;;;;0.45;0.35;;;15.50;99.90;;;;;;4982226;28;20223;-73
2023/10/21 07:53:46;;;;;;;0.95;0.50;;;15.50;99.90;;;;;;4982443;28;20225;-72
2023/10/21 07:56:11;;;;;;;0.77;0.40;;;15.50;99.90;;;;;;4982646;28;20180;-74
2023/10/21 07:58:38;;;;;;;2.35;0.40;;;15.50;99.90;;;;;;4977850;28;20200;-74
2023/10/21 08:01:04;;;;;;;0.40;0.40;;;15.50;99.90;;;;;;4972995;28;20206;-75
2023/10/21 08:03:30;;;;;;;0.50;0.38;;;15.60;99.90;;;;;;4972897;28;20239;-74
2023/10/21 08:05:55;;;;;;;1.80;1.20;;;15.60;99.90;;;;;;4982123;28;20210;-73
2023/10/21 08:08:21;;;;;;;0.70;0.70;;;15.60;99.90;;;;;;4982056;28;20168;-75
2023/10/21 08:10:47;;;;;;;2.00;0.50;;;15.60;99.90;;;;;;4982029;28;20200;-77
2023/10/21 08:13:15;;;;;;;1.08;0.50;;;15.60;99.90;;;;;;4982240;28;20168;-76
2023/10/21 08:15:45;;;;;;;0.52;0.40;;;15.60;99.90;;;;;;4982258;28;20174;-76
2023/10/21 08:18:10;;;;;;;0.47;0.32;;;15.60;99.90;;;;;;4981415;28;20207;-76
2023/10/21 08:20:39;;;;;;;0.80;0.30;;;15.60;99.90;;;;;;4982149;28;20187;-75
2023/10/21 08:23:07;;;;;;;1.33;0.40;;;15.60;99.90;;;;;;4982304;28;20215;-77
2023/10/21 08:25:33;;;;;;;0.93;0.40;;;15.60;99.90;;;;;;4991478;28;20203;-76
2023/10/21 08:27:59;;;;;;;1.38;0.50;;;15.60;99.90;;;;;;4984174;28;20179;-77
2023/10/21 08:30:24;;;;;;;1.15;0.40;;;15.60;99.90;;;;;;4982270;28;20286;-76
2023/10/21 08:32:55;;;;;;;0.50;0.25;;;15.60;99.90;;;;;;4985631;28;20183;-75
2023/10/21 08:35:21;;;;;;;1.70;0.30;;;15.60;99.90;;;;;;4997669;28;20200;-76
2023/10/21 08:37:47;;;;;;;0.65;0.30;;;15.60;99.90;;;;;;4976926;28;20270;-75
2023/10/21 08:40:12;;;;;;;1.08;0.45;;;15.60;99.90;;;;;;4980602;28;20219;-74
2023/10/21 08:42:41;;;;;;;2.85;0.40;;;15.60;99.90;;;;;;4978840;28;20185;-80
2023/10/21 08:45:09;;;;;;;1.17;0.70;;;15.70;99.90;;;;;;4979365;28;20211;-77
2023/10/21 08:47:36;;;;;;;1.02;0.50;;;15.70;99.90;;;;;;4981997;28;20194;-76
2023/10/21 08:50:03;;;;;;;0.40;0.30;;;15.70;99.90;;;;;;4981957;28;20180;-76
2023/10/21 08:52:30;;;;;;;1.88;0.40;;;15.70;99.90;;;;;;4980195;28;20196;-78
2023/10/21 08:54:56;;;;;;;0.32;0.30;;;15.80;99.90;;;;;;4977619;28;20199;-76
2023/10/21 08:57:22;;;;;;;1.27;0.40;;;15.80;99.90;;;;;;4982451;28;20197;-77
2023/10/21 08:59:49;;;;;;;1.15;0.40;;;15.80;99.90;;;;;;4978226;28;20176;-78
2023/10/21 09:02:17;;;;;;;0.50;0.30;;;15.90;99.90;;;;;;4994577;28;20180;-77
2023/10/21 09:04:45;;;;;;;1.10;0.50;;;15.90;99.90;;;;;;4977379;28;20208;-78
2023/10/21 09:07:12;;;;;;;0.70;0.40;;;16.00;99.90;;;;;;4978162;28;20224;-77
2023/10/21 09:09:39;;;;;;;1.35;0.55;;;16.10;99.90;;;;;;4979727;28;20195;-76
2023/10/21 09:12:17;;;;;;;1.65;0.82;;;16.10;99.90;;;;;;4978472;28;20178;-77
2023/10/21 09:15:01;;;;;;;0.60;0.47;;;16.20;99.90;;;;;;4974190;28;20177;-80
2023/10/21 09:17:39;;;;;;;1.50;0.60;;;16.20;99.90;;;;;;4960680;28;20177;-89
2023/10/21 09:20:09;;;;;;;0.85;0.57;;;16.30;99.90;;;;;;4982351;28;20204;-86
2023/10/21 09:22:38;;;;;;;1.67;0.55;;;16.40;99.90;;;;;;4979475;28;20191;-83
2023/10/21 09:25:10;;;;;;;0.63;0.40;;;16.60;99.90;;;;;;4959593;28;20217;-83
2023/10/21 09:27:38;;;;;;;1.65;0.77;;;17.20;99.90;;;;;;4972711;28;20187;-86
2023/10/21 09:30:04;;;;;;;0.95;0.45;;;17.70;99.90;;;;;;4975854;28;20227;-85
2023/10/21 09:32:33;;;;;;;1.65;0.52;;;18.30;99.90;;;;;;4978586;28;20235;-86
2023/10/21 09:35:16;;;;;;;0.70;0.40;;;18.70;99.90;;;;;;4977825;28;20180;-84
2023/10/21 09:37:42;;;;;;;2.83;0.80;;;19.20;99.90;;;;;;4970566;28;20220;-86
2023/10/21 09:40:09;;;;;;;1.10;0.47;;;19.60;99.90;;;;;;4963791;28;20203;-83
2023/10/21 09:42:41;;;;;;;2.25;0.65;;;19.90;99.90;;;;;;4974018;28;20235;-86
2023/10/21 09:45:08;;;;;;;2.95;0.68;;;20.30;99.90;;;;;;4958651;28;20263;-76
2023/10/21 09:47:41;;;;;;;1.27;0.60;;;20.60;99.90;;;;;;4973520;28;20180;-83
2023/10/21 09:50:11;;;;;;;2.35;0.40;;;20.90;99.90;;;;;;4974692;28;20196;-86
2023/10/21 09:52:51;;;;;;;1.58;0.80;;;21.00;99.90;;;;;;4978018;28;20198;-76
2023/10/21 09:55:24;;;;;;;0.77;0.40;;;21.10;99.90;;;;;;4978250;28;20160;-77
2023/10/21 09:57:52;;;;;;;1.92;0.65;;;21.10;99.90;;;;;;4977664;28;20246;-77
2023/10/21 10:00:21;;;;;;;0.93;0.50;;;21.20;99.90;;;;;;4977108;28;20187;-74
2023/10/21 10:02:48;;;;;;;1.73;0.50;;;21.10;99.90;;;;;;4977181;28;20275;-76
2023/10/21 10:05:16;;;;;;;1.65;0.70;;;21.10;99.90;;;;;;4977324;28;20196;-76
2023/10/21 10:07:44;;;;;;;4.75;0.75;;;21.10;99.90;;;;;;4977506;28;20183;-73
2023/10/21 10:10:15;;;;;;;1.00;0.50;;;21.00;99.90;;;;;;4977130;28;20207;-73
2023/10/21 10:13:01;;;;;;;0.50;0.32;;;20.90;99.90;;;;;;4977279;28;20172;-74
2023/10/21 10:15:35;;;;;;;0.90;0.50;;;20.80;99.90;;;;;;4994940;28;20172;-76
2023/10/21 10:18:08;;;;;;;2.28;0.88;;;20.80;99.90;;;;;;4963846;28;20176;-75
2023/10/21 10:20:43;;;;;;;1.45;0.52;;;20.80;99.90;;;;;;4977116;28;20258;-81
2023/10/21 10:23:09;;;;;;;2.40;0.77;;;20.70;99.90;;;;;;4976750;28;20211;-73
2023/10/21 10:25:39;;;;;;;1.63;0.68;;;20.60;99.90;;;;;;4977328;28;20192;-75
2023/10/21 10:28:08;;;;;;;1.42;0.57;;;20.50;99.90;;;;;;4965156;28;20211;-77
2023/10/21 10:30:43;;;;;;;1.50;0.60;;;20.40;99.90;;;;;;4957570;28;20197;-74
2023/10/21 10:33:17;;;;;;;2.05;0.77;;;20.30;99.90;;;;;;4962172;28;20184;-79
2023/10/21 10:35:47;;;;;;;2.92;0.73;;;20.20;99.90;;;;;;4976972;28;20187;-77
2023/10/21 10:38:44;;;;;;;2.33;0.90;;;20.20;99.90;;;;;;4976948;28;20210;-87
2023/10/21 10:41:18;;;;;;;2.50;0.80;;;20.20;99.90;;;;;;4977029;28;20214;-78
2023/10/21 10:44:06;;;;;;;2.45;0.70;;;20.20;99.90;;;;;;4976601;28;20200;-80
2023/10/21 10:46:36;;;;;;;2.35;0.57;;;20.30;99.90;;;;;;4978057;28;20227;-76
2023/10/21 10:49:05;;;;;;;1.67;0.68;;;20.30;99.90;;;;;;4975845;28;20204;-80
2023/10/21 10:51:47;;;;;;;2.38;0.68;;;20.20;99.90;;;;;;4964739;28;20180;-80
2023/10/21 10:54:17;;;;;;;1.63;0.70;;;20.20;99.90;;;;;;4977020;28;20279;-75
2023/10/21 10:56:49;;;;;;;2.67;0.60;;;20.10;99.90;;;;;;4993009;28;20179;-74
2023/10/21 10:59:17;;;;;;;2.38;1.00;;;20.10;99.90;;;;;;4966611;28;20156;-71
2023/10/21 11:01:43;;;;;;;3.80;1.10;;;20.10;99.90;;;;;;4973034;28;20200;-75
2023/10/21 11:04:14;;;;;;;1.92;0.70;;;20.00;99.90;;;;;;4977255;28;20266;-75
2023/10/21 11:06:40;;;;;;;1.60;0.55;;;20.00;99.90;;;;;;4975074;28;20251;-76
2023/10/21 11:09:16;;;;;;;3.67;1.55;;;20.00;99.90;;;;;;4966452;28;20309;-77
2023/10/21 11:11:54;;;;;;;3.00;1.00;;;19.90;99.90;;;;;;4972488;28;20176;-77
2023/10/21 11:14:20;;;;;;;2.33;1.00;;;19.90;99.90;;;;;;4994363;28;20209;-75
2023/10/21 11:16:49;;;;;;;3.42;0.95;;;19.80;99.90;;;;;;4978010;28;20180;-79
2023/10/21 11:19:15;;;;;;;3.60;0.95;;;19.80;99.90;;;;;;4976024;28;20203;-81
2023/10/21 11:21:48;;;;;;;2.13;0.70;;;19.80;99.90;;;;;;4976226;28;20258;-81
2023/10/21 11:24:18;;;;;;;2.75;0.80;;;19.80;99.90;;;;;;4976489;28;20176;-78
2023/10/21 11:26:45;;;;;;;1.25;0.50;;;19.70;99.90;;;;;;4976225;28;20180;-75
2023/10/21 11:29:11;;;;;;;1.67;0.70;;;19.70;99.90;;;;;;4976175;28;20190;-81
2023/10/21 11:31:37;;;;;;;3.88;0.80;;;19.70;99.90;;;;;;4975898;28;20172;-83
2023/10/21 11:34:10;;;;;;;2.05;0.75;;;19.60;99.90;;;;;;4964979;28;20229;-81
2023/10/21 11:36:37;;;;;;;3.08;0.80;;;19.60;99.90;;;;;;4992638;28;20176;-83
2023/10/21 11:39:13;;;;;;;2.40;0.70;;;19.60;99.90;;;;;;4974514;28;20196;-84
2023/10/21 11:41:54;;;;;;;3.17;0.77;;;19.60;99.90;;;;;;4976712;28;20199;-81
2023/10/21 11:44:32;;;;;;;1.67;0.73;;;19.60;99.90;;;;;;4977467;28;20467;-84
2023/10/21 11:47:06;;;;;;;2.78;1.08;;;19.50;99.90;;;;;;4992039;28;20214;-84
2023/10/21 11:49:35;;;;;;;2.80;1.00;;;19.50;99.90;;;;;;4996232;28;20213;-83
2023/10/21 11:52:00;;;;;;;2.63;0.88;;;19.30;99.90;;;;;;4992663;28;20172;-85
2023/10/21 11:54:46;;;;;;;3.42;1.20;;;19.30;99.90;;;;;;4975055;28;20199;-81
2023/10/21 12:11:42;;;;;;;3.53;1.00;;;19.60;99.90;;;;;;4976374;28;20179;-75
2023/10/21 12:16:56;;;;;;;2.58;1.13;;;19.90;99.90;;;;;;4976963;28;20163;-79
2023/10/21 12:28:13;;;;;;;3.35;1.05;;;20.20;99.90;;;;;;4960828;28;20214;-82
2023/10/21 12:33:45;;;;;;;2.33;0.80;;;20.20;99.90;;;;;;4971454;28;20224;-83
2023/10/21 12:35:51;;;;;;;5.60;1.00;;;20.30;99.90;;;;;;4953686;29;20234;-79
2023/10/21 12:43:35;;;;;;;1.95;0.90;;;20.50;99.90;;;;;;4974912;28;20168;-80
2023/10/21 12:46:20;;;;;;;4.30;1.50;;;20.60;99.90;;;;;;4959915;29;20212;-78
2023/10/21 12:48:52;;;;;;;4.25;1.30;;;20.60;99.90;;;;;;4971462;28;20235;-82
2023/10/21 12:51:22;;;;;;;2.38;0.95;;;20.60;99.90;;;;;;4975303;28;20208;-78
2023/10/21 12:53:49;;;;;;;3.00;1.00;;;20.50;99.90;;;;;;4979270;28;20181;-79
2023/10/21 12:56:18;;;;;;;2.17;0.93;;;20.40;99.90;;;;;;4995425;28;20266;-79
2023/10/21 12:58:46;;;;;;;3.55;1.10;;;20.30;99.90;;;;;;4979086;28;20204;-79
2023/10/21 13:01:19;;;;;;;2.97;1.00;;;20.30;99.90;;;;;;4978118;28;20216;-82
2023/10/21 13:03:49;;;;;;;2.70;1.15;;;20.20;99.90;;;;;;4978889;28;20179;-82
2023/10/21 13:06:17;;;;;;;3.33;1.13;;;20.10;99.90;;;;;;4979361;28;20294;-88
2023/10/21 13:08:45;;;;;;;2.40;1.10;;;20.00;99.90;;;;;;4990589;28;20195;-82
2023/10/21 13:11:13;;;;;;;4.68;1.35;;;20.10;99.90;;;;;;4981107;28;20224;-81
2023/10/21 13:13:43;;;;;;;2.25;1.00;;;20.10;99.90;;;;;;4979011;28;20175;-72
2023/10/21 13:16:09;;;;;;;2.80;0.95;;;20.20;99.90;;;;;;4975214;28;20191;-71
2023/10/21 13:18:40;;;;;;;2.13;1.13;;;20.20;99.90;;;;;;4973754;28;20180;-72
2023/10/21 13:21:06;;;;;;;5.03;1.10;;;20.30;99.90;;;;;;4973027;28;20232;-72
2023/10/21 13:23:37;;;;;;;3.28;1.10;;;20.40;99.90;;;;;;4978939;28;20231;-70
2023/10/21 13:26:10;;;;;;;3.10;1.10;;;20.50;99.90;;;;;;4977541;28;20226;-70
2023/10/21 13:28:36;;;;;;;3.50;1.30;;;20.60;99.90;;;;;;4963179;28;20192;-69